sensor_id;sensor_type;location;lat;lon;timestamp;pressure;altitude;pressure_sealevel;temperature;humidity
11525;BME280;5819;49.648;8.330;2023-05-21T00:02:38;100146.31;;;16.09;100.00
11525;BME280;5819;49.648;8.330;2023-05-21T00:05:07;100136.03;;;16.06;100.00
11525;BME280;5819;49.648;8.330;2023-05-21T00:07:40;100139.28;;;16.10;100.00
11525;BME280;5819;49.648;8.330;2023-05-21T00:10:09;100138.75;;;16.17;100.00
11525;BME280;5819;49.648;8.330;2023-05-21T00:12:36;100131.63;;;16.07;100.00
11525;BME280;5819;49.648;8.330;2023-05-21T00:15:05;100137.19;;;16.15;100.00
11525;BME280;5819;49.648;8.330;2023-05-21T00:17:33;100134.78;;;16.12;100.00
11525;BME280;5819;49.648;8.330;2023-05-21T00:20:05;100123.75;;;15.94;100.00
11525;BME280;5819;49.648;8.330;2023-05-21T00:22:34;100118.50;;;15.94;100.00
11525;BME280;5819;49.648;8.330;2023-05-21T00:25:02;100128.06;;;16.08;100.00
11525;BME280;5819;49.648;8.330;2023-05-21T00:27:30;100122.72;;;15.97;100.00
11525;BME280;5819;49.648;8.330;2023-05-21T00:29:58;100123.75;;;16.07;100.00
11525;BME280;5819;49.648;8.330;2023-05-21T00:32:28;100113.59;;;16.02;100.00
11525;BME280;5819;49.648;8.330;2023-05-21T00:34:56;100110.88;;;16.16;100.00
11525;BME280;5819;49.648;8.330;2023-05-21T00:37:25;100106.25;;;16.07;100.00
11525;BME280;5819;49.648;8.330;2023-05-21T00:39:55;100108.63;;;16.23;100.00
11525;BME280;5819;49.648;8.330;2023-05-21T00:42:24;100105.19;;;16.10;100.00
11525;BME280;5819;49.648;8.330;2023-05-21T00:44:52;100101.63;;;16.11;100.00
11525;BME280;5819;49.648;8.330;2023-05-21T00:47:21;100103.94;;;16.03;100.00
11525;BME280;5819;49.648;8.330;2023-05-21T00:49:50;100102.06;;;15.92;100.00
11525;BME280;5819;49.648;8.330;2023-05-21T00:52:19;100109.78;;;15.93;100.00
11525;BME280;5819;49.648;8.330;2023-05-21T00:54:50;100098.47;;;16.06;100.00
11525;BME280;5819;49.648;8.330;2023-05-21T00:57:19;100107.81;;;15.97;100.00
11525;BME280;5819;49.648;8.330;2023-05-21T00:59:52;100103.22;;;15.88;100.00
11525;BME280;5819;49.648;8.330;2023-05-21T01:02:21;100102.44;;;15.86;100.00
11525;BME280;5819;49.648;8.330;2023-05-21T01:04:53;100102.25;;;15.89;100.00
11525;BME280;5819;49.648;8.330;2023-05-21T01:07:21;100101.09;;;15.93;100.00
11525;BME280;5819;49.648;8.330;2023-05-21T01:09:51;100105.28;;;15.83;100.00
11525;BME280;5819;49.648;8.330;2023-05-21T01:12:21;100101.31;;;15.90;100.00
11525;BME280;5819;49.648;8.330;2023-05-21T01:14:50;100095.34;;;16.01;100.00
11525;BME280;5819;49.648;8.330;2023-05-21T01:17:19;100088.19;;;15.90;100.00
11525;BME280;5819;49.648;8.330;2023-05-21T01:19:51;100089.88;;;15.78;100.00
11525;BME280;5819;49.648;8.330;2023-05-21T01:22:20;100087.47;;;15.75;100.00
11525;BME280;5819;49.648;8.330;2023-05-21T01:24:54;100089.53;;;15.70;100.00
11525;BME280;5819;49.648;8.330;2023-05-21T01:27:23;100084.00;;;15.87;100.00
11525;BME280;5819;49.648;8.330;2023-05-21T01:29:51;100081.47;;;15.73;100.00
11525;BME280;5819;49.648;8.330;2023-05-21T01:32:25;100078.44;;;15.79;100.00
11525;BME280;5819;49.648;8.330;2023-05-21T01:34:59;100070.03;;;16.00;100.00
11525;BME280;5819;49.648;8.330;2023-05-21T01:37:31;100066.88;;;15.95;100.00
11525;BME280;5819;49.648;8.330;2023-05-21T01:40:07;100069.72;;;15.79;100.00
11525;BME280;5819;49.648;8.330;2023-05-21T01:42:41;100063.22;;;15.84;100.00
11525;BME280;5819;49.648;8.330;2023-05-21T01:45:10;100063.31;;;15.83;100.00
11525;BME280;5819;49.648;8.330;2023-05-21T01:47:40;100063.22;;;15.84;100.00
11525;BME280;5819;49.648;8.330;2023-05-21T01:50:09;100068.88;;;15.78;100.00
11525;BME280;5819;49.648;8.330;2023-05-21T01:52:37;100061.09;;;15.77;100.00
11525;BME280;5819;49.648;8.330;2023-05-21T01:55:07;100065.72;;;15.73;100.00
11525;BME280;5819;49.648;8.330;2023-05-21T01:57:35;100063.84;;;15.63;100.00
11525;BME280;5819;49.648;8.330;2023-05-21T02:00:05;100062.59;;;15.56;100.00
11525;BME280;5819;49.648;8.330;2023-05-21T02:02:40;100062.81;;;15.53;100.00
11525;BME280;5819;49.648;8.330;2023-05-21T02:05:09;100068.84;;;15.53;100.00
11525;BME280;5819;49.648;8.330;2023-05-21T02:07:37;100066.63;;;15.47;100.00
11525;BME280;5819;49.648;8.330;2023-05-21T02:10:08;100067.72;;;15.57;100.00
11525;BME280;5819;49.648;8.330;2023-05-21T02:12:37;100061.94;;;15.65;100.00
11525;BME280;5819;49.648;8.330;2023-05-21T02:15:06;100053.75;;;15.57;100.00
11525;BME280;5819;49.648;8.330;2023-05-21T02:17:34;100057.97;;;15.72;100.00
11525;BME280;5819;49.648;8.330;2023-05-21T02:20:11;100060.59;;;15.59;100.00
11525;BME280;5819;49.648;8.330;2023-05-21T02:22:41;100054.91;;;15.65;100.00
11525;BME280;5819;49.648;8.330;2023-05-21T02:25:12;100060.81;;;15.56;100.00
11525;BME280;5819;49.648;8.330;2023-05-21T02:27:41;100057.44;;;15.54;100.00
11525;BME280;5819;49.648;8.330;2023-05-21T02:30:11;100054.38;;;15.48;100.00
11525;BME280;5819;49.648;8.330;2023-05-21T02:32:39;100055.22;;;15.48;100.00
11525;BME280;5819;49.648;8.330;2023-05-21T02:35:10;100048.31;;;15.60;100.00
11525;BME280;5819;49.648;8.330;2023-05-21T02:37:39;100049.66;;;15.65;100.00
11525;BME280;5819;49.648;8.330;2023-05-21T02:40:08;100050.31;;;15.56;100.00
11525;BME280;5819;49.648;8.330;2023-05-21T02:42:39;100055.50;;;15.43;100.00
11525;BME280;5819;49.648;8.330;2023-05-21T02:45:11;100054.09;;;15.52;100.00
11525;BME280;5819;49.648;8.330;2023-05-21T02:47:41;100059.44;;;15.51;100.00
11525;BME280;5819;49.648;8.330;2023-05-21T02:50:09;100052.28;;;15.65;100.00
11525;BME280;5819;49.648;8.330;2023-05-21T02:52:47;100054.19;;;15.63;100.00
11525;BME280;5819;49.648;8.330;2023-05-21T02:55:15;100049.56;;;15.54;100.00
11525;BME280;5819;49.648;8.330;2023-05-21T02:57:44;100048.19;;;15.49;100.00
11525;BME280;5819;49.648;8.330;2023-05-21T03:00:13;100048.66;;;15.41;100.00
11525;BME280;5819;49.648;8.330;2023-05-21T03:02:42;100047.88;;;15.53;100.00
11525;BME280;5819;49.648;8.330;2023-05-21T03:05:10;100044.44;;;15.53;100.00
11525;BME280;5819;49.648;8.330;2023-05-21T03:07:38;100043.25;;;15.57;100.00
11525;BME280;5819;49.648;8.330;2023-05-21T03:10:07;100040.75;;;15.55;100.00
11525;BME280;5819;49.648;8.330;2023-05-21T03:12:36;100042.63;;;15.53;100.00
11525;BME280;5819;49.648;8.330;2023-05-21T03:15:07;100035.63;;;15.54;100.00
11525;BME280;5819;49.648;8.330;2023-05-21T03:17:35;100036.59;;;15.53;100.00
11525;BME280;5819;49.648;8.330;2023-05-21T03:20:04;100041.34;;;15.46;100.00
11525;BME280;5819;49.648;8.330;2023-05-21T03:22:32;100044.72;;;15.48;100.00
11525;BME280;5819;49.648;8.330;2023-05-21T03:25:00;100049.13;;;15.48;100.00
11525;BME280;5819;49.648;8.330;2023-05-21T03:27:28;100041.69;;;15.54;100.00
11525;BME280;5819;49.648;8.330;2023-05-21T03:29:57;100044.53;;;15.51;100.00
11525;BME280;5819;49.648;8.330;2023-05-21T03:32:27;100045.47;;;15.50;100.00
11525;BME280;5819;49.648;8.330;2023-05-21T03:34:56;100038.44;;;15.51;100.00
11525;BME280;5819;49.648;8.330;2023-05-21T03:37:24;100037.22;;;15.56;100.00
11525;BME280;5819;49.648;8.330;2023-05-21T03:39:52;100034.69;;;15.55;100.00
11525;BME280;5819;49.648;8.330;2023-05-21T03:42:20;100029.09;;;15.46;100.00
11525;BME280;5819;49.648;8.330;2023-05-21T03:44:52;100029.53;;;15.66;100.00
11525;BME280;5819;49.648;8.330;2023-05-21T03:47:47;100033.84;;;15.54;100.00
11525;BME280;5819;49.648;8.330;2023-05-21T03:50:15;100034.38;;;15.59;100.00
11525;BME280;5819;49.648;8.330;2023-05-21T03:52:43;100025.13;;;15.66;100.00
11525;BME280;5819;49.648;8.330;2023-05-21T03:55:12;100031.97;;;15.56;100.00
11525;BME280;5819;49.648;8.330;2023-05-21T03:57:40;100035.75;;;15.52;100.00
11525;BME280;5819;49.648;8.330;2023-05-21T04:00:08;100037.50;;;15.52;100.00
11525;BME280;5819;49.648;8.330;2023-05-21T04:02:42;100042.84;;;15.50;100.00
11525;BME280;5819;49.648;8.330;2023-05-21T04:05:16;100032.78;;;15.57;100.00
11525;BME280;5819;49.648;8.330;2023-05-21T04:07:44;100036.00;;;15.48;100.00
11525;BME280;5819;49.648;8.330;2023-05-21T04:10:12;100042.34;;;15.58;100.00
11525;BME280;5819;49.648;8.330;2023-05-21T04:12:40;100042.53;;;15.55;100.00
11525;BME280;5819;49.648;8.330;2023-05-21T04:15:09;100039.84;;;15.56;100.00
11525;BME280;5819;49.648;8.330;2023-05-21T04:17:38;100044.72;;;15.48;100.00
11525;BME280;5819;49.648;8.330;2023-05-21T04:20:07;100041.69;;;15.54;100.00
11525;BME280;5819;49.648;8.330;2023-05-21T04:22:36;100040.13;;;15.52;100.00
11525;BME280;5819;49.648;8.330;2023-05-21T04:25:05;100048.84;;;15.52;100.00
11525;BME280;5819;49.648;8.330;2023-05-21T04:27:36;100047.53;;;15.45;100.00
11525;BME280;5819;49.648;8.330;2023-05-21T04:30:06;100048.59;;;15.42;100.00
11525;BME280;5819;49.648;8.330;2023-05-21T04:32:35;100051.84;;;15.46;100.00
11525;BME280;5819;49.648;8.330;2023-05-21T04:35:06;100050.88;;;15.34;100.00
11525;BME280;5819;49.648;8.330;2023-05-21T04:37:37;100052.50;;;15.50;100.00
11525;BME280;5819;49.648;8.330;2023-05-21T04:40:08;100053.28;;;15.37;100.00
11525;BME280;5819;49.648;8.330;2023-05-21T04:42:36;100046.06;;;15.41;100.00
11525;BME280;5819;49.648;8.330;2023-05-21T04:45:05;100052.56;;;15.35;100.00
11525;BME280;5819;49.648;8.330;2023-05-21T04:47:37;100054.75;;;15.41;100.00
11525;BME280;5819;49.648;8.330;2023-05-21T04:50:06;100055.19;;;15.35;100.00
11525;BME280;5819;49.648;8.330;2023-05-21T04:52:34;100054.25;;;15.36;100.00
11525;BME280;5819;49.648;8.330;2023-05-21T04:55:05;100049.44;;;15.43;100.00
11525;BME280;5819;49.648;8.330;2023-05-21T04:57:33;100051.84;;;15.46;100.00
11525;BME280;5819;49.648;8.330;2023-05-21T05:00:02;100061.44;;;15.60;100.00
11525;BME280;5819;49.648;8.330;2023-05-21T05:02:37;100055.97;;;15.63;100.00
11525;BME280;5819;49.648;8.330;2023-05-21T05:05:07;100060.34;;;15.50;100.00
11525;BME280;5819;49.648;8.330;2023-05-21T05:07:34;100058.59;;;15.63;100.00
11525;BME280;5819;49.648;8.330;2023-05-21T05:10:05;100058.06;;;15.58;100.00
11525;BME280;5819;49.648;8.330;2023-05-21T05:12:33;100052.81;;;15.70;100.00
11525;BME280;5819;49.648;8.330;2023-05-21T05:15:01;100055.75;;;15.66;100.00
11525;BME280;5819;49.648;8.330;2023-05-21T05:17:29;100054.72;;;15.56;100.00
11525;BME280;5819;49.648;8.330;2023-05-21T05:19:57;100059.34;;;15.52;100.00
11525;BME280;5819;49.648;8.330;2023-05-21T05:22:25;100060.81;;;15.56;100.00
11525;BME280;5819;49.648;8.330;2023-05-21T05:24:53;100060.28;;;15.76;100.00
11525;BME280;5819;49.648;8.330;2023-05-21T05:27:22;100063.00;;;15.62;100.00
11525;BME280;5819;49.648;8.330;2023-05-21T05:29:51;100054.91;;;15.65;100.00
11525;BME280;5819;49.648;8.330;2023-05-21T05:32:19;100054.06;;;15.65;100.00
11525;BME280;5819;49.648;8.330;2023-05-21T05:34:47;100056.38;;;15.69;100.00
11525;BME280;5819;49.648;8.330;2023-05-21T05:37:15;100047.91;;;15.78;100.00
11525;BME280;5819;49.648;8.330;2023-05-21T05:39:43;100063.63;;;15.91;100.00
11525;BME280;5819;49.648;8.330;2023-05-21T05:42:13;100056.16;;;15.98;100.00
11525;BME280;5819;49.648;8.330;2023-05-21T05:44:42;100052.00;;;15.82;100.00
11525;BME280;5819;49.648;8.330;2023-05-21T05:47:09;100056.91;;;15.74;100.00
11525;BME280;5819;49.648;8.330;2023-05-21T05:49:39;100055.22;;;15.73;100.00
11525;BME280;5819;49.648;8.330;2023-05-21T05:52:07;100056.81;;;15.63;100.00
11525;BME280;5819;49.648;8.330;2023-05-21T05:54:35;100055.47;;;15.83;100.00
11525;BME280;5819;49.648;8.330;2023-05-21T05:57:04;100057.44;;;15.79;100.00
11525;BME280;5819;49.648;8.330;2023-05-21T05:59:33;100053.56;;;15.72;100.00
11525;BME280;5819;49.648;8.330;2023-05-21T06:02:04;100050.94;;;15.85;100.00
11525;BME280;5819;49.648;8.330;2023-05-21T06:04:33;100061.53;;;15.83;100.00
11525;BME280;5819;49.648;8.330;2023-05-21T06:07:01;100061.53;;;15.83;100.00
11525;BME280;5819;49.648;8.330;2023-05-21T06:09:29;100061.09;;;15.89;100.00
11525;BME280;5819;49.648;8.330;2023-05-21T06:11:58;100054.59;;;15.95;100.00
11525;BME280;5819;49.648;8.330;2023-05-21T06:14:26;100055.84;;;16.15;100.00
11525;BME280;5819;49.648;8.330;2023-05-21T06:16:54;100051.53;;;16.01;100.00
11525;BME280;5819;49.648;8.330;2023-05-21T06:19:25;100051.34;;;16.04;100.00
11525;BME280;5819;49.648;8.330;2023-05-21T06:21:54;100054.69;;;16.19;100.00
11525;BME280;5819;49.648;8.330;2023-05-21T06:24:22;100054.19;;;16.50;100.00
11525;BME280;5819;49.648;8.330;2023-05-21T06:26:50;100050.38;;;16.67;100.00
11525;BME280;5819;49.648;8.330;2023-05-21T06:29:18;100057.13;;;16.58;100.00
11525;BME280;5819;49.648;8.330;2023-05-21T06:31:47;100056.25;;;16.70;100.00
11525;BME280;5819;49.648;8.330;2023-05-21T06:34:15;100054.19;;;16.87;100.00
11525;BME280;5819;49.648;8.330;2023-05-21T06:36:44;100059.78;;;16.82;100.00
11525;BME280;5819;49.648;8.330;2023-05-21T06:39:13;100059.31;;;17.12;100.00
11525;BME280;5819;49.648;8.330;2023-05-21T06:41:47;100062.94;;;17.22;100.00
11525;BME280;5819;49.648;8.330;2023-05-21T06:44:38;100063.59;;;17.37;100.00
11525;BME280;5819;49.648;8.330;2023-05-21T06:47:23;100057.75;;;17.44;100.00
11525;BME280;5819;49.648;8.330;2023-05-21T06:49:52;100061.22;;;17.45;100.00
11525;BME280;5819;49.648;8.330;2023-05-21T06:52:21;100064.13;;;17.53;100.00
11525;BME280;5819;49.648;8.330;2023-05-21T06:54:49;100057.69;;;17.57;100.00
11525;BME280;5819;49.648;8.330;2023-05-21T06:57:19;100062.13;;;17.67;100.00
11525;BME280;5819;49.648;8.330;2023-05-21T06:59:47;100051.03;;;17.86;99.66
11525;BME280;5819;49.648;8.330;2023-05-21T07:02:14;100055.34;;;18.32;99.61
11525;BME280;5819;49.648;8.330;2023-05-21T07:04:42;100055.56;;;18.17;100.00
11525;BME280;5819;49.648;8.330;2023-05-21T07:07:11;100057.13;;;18.31;99.56
11525;BME280;5819;49.648;8.330;2023-05-21T07:09:42;100051.00;;;18.42;98.90
11525;BME280;5819;49.648;8.330;2023-05-21T07:12:09;100050.53;;;18.59;96.16
11525;BME280;5819;49.648;8.330;2023-05-21T07:14:37;100053.63;;;18.42;96.32
11525;BME280;5819;49.648;8.330;2023-05-21T07:17:06;100052.91;;;18.51;96.77
11525;BME280;5819;49.648;8.330;2023-05-21T07:19:34;100050.69;;;18.57;95.05
11525;BME280;5819;49.648;8.330;2023-05-21T07:22:03;100042.84;;;18.67;94.12
11525;BME280;5819;49.648;8.330;2023-05-21T07:24:32;100043.06;;;18.75;95.02
11525;BME280;5819;49.648;8.330;2023-05-21T07:27:01;100050.31;;;18.94;97.14
11525;BME280;5819;49.648;8.330;2023-05-21T07:29:40;100032.56;;;19.28;91.36
11525;BME280;5819;49.648;8.330;2023-05-21T07:32:08;100033.97;;;19.32;91.80
11525;BME280;5819;49.648;8.330;2023-05-21T07:34:36;100035.97;;;19.39;92.75
11525;BME280;5819;49.648;8.330;2023-05-21T07:37:04;100032.00;;;19.45;92.58
11525;BME280;5819;49.648;8.330;2023-05-21T07:39:32;100033.53;;;19.68;89.77
11525;BME280;5819;49.648;8.330;2023-05-21T07:42:01;100029.03;;;19.59;90.75
11525;BME280;5819;49.648;8.330;2023-05-21T07:44:29;100028.56;;;19.54;89.48
11525;BME280;5819;49.648;8.330;2023-05-21T07:46:58;100028.31;;;19.36;89.76
11525;BME280;5819;49.648;8.330;2023-05-21T07:49:26;100027.09;;;19.40;90.67
11525;BME280;5819;49.648;8.330;2023-05-21T07:51:59;100030.84;;;19.38;89.73
11525;BME280;5819;49.648;8.330;2023-05-21T07:54:28;100030.00;;;19.58;87.91
11525;BME280;5819;49.648;8.330;2023-05-21T07:56:56;100025.56;;;19.58;88.10
11525;BME280;5819;49.648;8.330;2023-05-21T07:59:46;100028.00;;;19.50;88.63
11525;BME280;5819;49.648;8.330;2023-05-21T08:02:14;100041.75;;;19.33;89.41
11525;BME280;5819;49.648;8.330;2023-05-21T08:04:42;100032.06;;;19.34;90.49
11525;BME280;5819;49.648;8.330;2023-05-21T08:07:11;100030.56;;;19.41;91.62
11525;BME280;5819;49.648;8.330;2023-05-21T08:09:39;100035.91;;;19.50;91.58
11525;BME280;5819;49.648;8.330;2023-05-21T08:12:10;100026.34;;;19.49;90.49
11525;BME280;5819;49.648;8.330;2023-05-21T08:14:42;100020.84;;;19.62;89.82
11525;BME280;5819;49.648;8.330;2023-05-21T08:17:14;100021.44;;;19.66;90.80
11525;BME280;5819;49.648;8.330;2023-05-21T08:19:42;100017.50;;;19.81;89.00
11525;BME280;5819;49.648;8.330;2023-05-21T08:22:11;100015.31;;;19.95;88.59
11525;BME280;5819;49.648;8.330;2023-05-21T08:24:43;100013.94;;;20.31;89.83
11525;BME280;5819;49.648;8.330;2023-05-21T08:27:11;100010.56;;;20.69;87.76
11525;BME280;5819;49.648;8.330;2023-05-21T08:29:41;99999.00;;;21.09;85.12
11525;BME280;5819;49.648;8.330;2023-05-21T08:32:09;100003.75;;;21.05;83.46
11525;BME280;5819;49.648;8.330;2023-05-21T08:34:38;100002.06;;;21.23;81.91
11525;BME280;5819;49.648;8.330;2023-05-21T08:37:17;99998.16;;;21.27;81.49
11525;BME280;5819;49.648;8.330;2023-05-21T08:39:58;99999.41;;;21.23;82.76
11525;BME280;5819;49.648;8.330;2023-05-21T08:42:38;100003.31;;;21.19;81.95
11525;BME280;5819;49.648;8.330;2023-05-21T08:45:11;100000.13;;;21.16;82.11
11525;BME280;5819;49.648;8.330;2023-05-21T08:47:41;99995.81;;;21.15;81.50
11525;BME280;5819;49.648;8.330;2023-05-21T08:50:16;99997.06;;;21.30;82.31
11525;BME280;5819;49.648;8.330;2023-05-21T08:52:46;99991.34;;;21.34;79.99
11525;BME280;5819;49.648;8.330;2023-05-21T08:55:16;99998.28;;;21.35;80.90
11525;BME280;5819;49.648;8.330;2023-05-21T08:57:44;99994.50;;;21.57;81.03
11525;BME280;5819;49.648;8.330;2023-05-21T09:00:15;99994.00;;;21.34;80.33
11525;BME280;5819;49.648;8.330;2023-05-21T09:02:43;99998.16;;;21.37;80.37
11525;BME280;5819;49.648;8.330;2023-05-21T09:05:15;99996.59;;;21.44;77.06
11525;BME280;5819;49.648;8.330;2023-05-21T09:07:47;100003.38;;;21.66;79.23
11525;BME280;5819;49.648;8.330;2023-05-21T09:10:33;100004.72;;;21.79;76.37
11525;BME280;5819;49.648;8.330;2023-05-21T09:13:02;99994.16;;;22.07;78.72
11525;BME280;5819;49.648;8.330;2023-05-21T09:15:31;99992.72;;;22.22;76.63
11525;BME280;5819;49.648;8.330;2023-05-21T09:17:59;99991.19;;;22.19;76.06
11525;BME280;5819;49.648;8.330;2023-05-21T09:20:41;99999.75;;;22.04;77.31
11525;BME280;5819;49.648;8.330;2023-05-21T09:23:11;99993.63;;;22.03;75.70
11525;BME280;5819;49.648;8.330;2023-05-21T09:25:44;100007.34;;;21.79;75.47
11525;BME280;5819;49.648;8.330;2023-05-21T09:28:19;100001.53;;;21.76;76.92
11525;BME280;5819;49.648;8.330;2023-05-21T09:30:48;99993.19;;;22.35;76.38
11525;BME280;5819;49.648;8.330;2023-05-21T09:33:23;99977.19;;;22.72;75.12
11525;BME280;5819;49.648;8.330;2023-05-21T09:35:54;99982.56;;;22.80;75.97
11525;BME280;5819;49.648;8.330;2023-05-21T09:38:25;99971.66;;;22.83;72.60
11525;BME280;5819;49.648;8.330;2023-05-21T09:40:54;99974.38;;;22.91;71.64
11525;BME280;5819;49.648;8.330;2023-05-21T09:43:24;99968.84;;;23.02;71.48
11525;BME280;5819;49.648;8.330;2023-05-21T09:45:55;99969.81;;;23.19;71.62
11525;BME280;5819;49.648;8.330;2023-05-21T09:48:34;99974.91;;;23.38;70.68
11525;BME280;5819;49.648;8.330;2023-05-21T09:51:08;99965.88;;;23.74;70.71
11525;BME280;5819;49.648;8.330;2023-05-21T09:53:42;99969.75;;;23.96;70.46
11525;BME280;5819;49.648;8.330;2023-05-21T09:56:10;99977.72;;;24.30;70.55
11525;BME280;5819;49.648;8.330;2023-05-21T09:58:38;99957.88;;;24.66;64.72
11525;BME280;5819;49.648;8.330;2023-05-21T10:01:09;99955.19;;;25.47;65.42
11525;BME280;5819;49.648;8.330;2023-05-21T10:03:38;99949.63;;;25.73;63.54
11525;BME280;5819;49.648;8.330;2023-05-21T10:06:08;99947.03;;;25.96;62.68
11525;BME280;5819;49.648;8.330;2023-05-21T10:08:41;99950.59;;;25.80;63.18
11525;BME280;5819;49.648;8.330;2023-05-21T10:11:11;99942.00;;;26.40;62.43
11525;BME280;5819;49.648;8.330;2023-05-21T10:13:44;99952.22;;;26.28;62.27
11525;BME280;5819;49.648;8.330;2023-05-21T10:16:12;99955.19;;;26.02;63.52
11525;BME280;5819;49.648;8.330;2023-05-21T10:18:41;99921.59;;;28.60;56.46
11525;BME280;5819;49.648;8.330;2023-05-21T10:21:13;99916.44;;;29.29;54.21
11525;BME280;5819;49.648;8.330;2023-05-21T10:23:42;99925.34;;;29.08;52.86
11525;BME280;5819;49.648;8.330;2023-05-21T10:26:11;99928.84;;;29.71;53.57
11525;BME280;5819;49.648;8.330;2023-05-21T10:28:40;99931.75;;;29.35;53.42
11525;BME280;5819;49.648;8.330;2023-05-21T10:31:09;99931.38;;;29.86;52.28
11525;BME280;5819;49.648;8.330;2023-05-21T10:33:37;99915.31;;;30.40;49.92
11525;BME280;5819;49.648;8.330;2023-05-21T10:36:08;99920.78;;;30.99;48.99
11525;BME280;5819;49.648;8.330;2023-05-21T10:38:39;99919.91;;;30.79;48.94
11525;BME280;5819;49.648;8.330;2023-05-21T10:41:10;99923.88;;;31.09;50.17
11525;BME280;5819;49.648;8.330;2023-05-21T10:43:44;99944.56;;;27.83;53.89
11525;BME280;5819;49.648;8.330;2023-05-21T10:46:29;99932.69;;;29.27;52.68
11525;BME280;5819;49.648;8.330;2023-05-21T10:49:15;99931.78;;;29.83;52.12
11525;BME280;5819;49.648;8.330;2023-05-21T10:51:53;99911.44;;;30.75;48.55
11525;BME280;5819;49.648;8.330;2023-05-21T10:54:50;99920.66;;;30.33;50.29
11525;BME280;5819;49.648;8.330;2023-05-21T10:57:38;99914.16;;;30.88;48.11
11525;BME280;5819;49.648;8.330;2023-05-21T11:00:12;99911.66;;;30.80;48.23
11525;BME280;5819;49.648;8.330;2023-05-21T11:02:43;99890.31;;;31.58;46.17
11525;BME280;5819;49.648;8.330;2023-05-21T11:05:11;99890.78;;;31.86;44.41
11525;BME280;5819;49.648;8.330;2023-05-21T11:07:52;99900.47;;;31.36;46.02
11525;BME280;5819;49.648;8.330;2023-05-21T11:10:37;99894.81;;;31.70;43.69
11525;BME280;5819;49.648;8.330;2023-05-21T11:13:07;99890.69;;;31.68;45.07
11525;BME280;5819;49.648;8.330;2023-05-21T11:16:06;99890.41;;;31.89;44.07
11525;BME280;5819;49.648;8.330;2023-05-21T11:18:58;99880.38;;;32.09;42.79
11525;BME280;5819;49.648;8.330;2023-05-21T11:21:34;99884.19;;;31.82;42.59
11525;BME280;5819;49.648;8.330;2023-05-21T11:24:04;99890.78;;;31.28;42.75
11525;BME280;5819;49.648;8.330;2023-05-21T11:27:01;99898.00;;;30.62;43.89
11525;BME280;5819;49.648;8.330;2023-05-21T11:29:35;99894.09;;;30.64;44.54
11525;BME280;5819;49.648;8.330;2023-05-21T11:32:07;99891.41;;;30.84;44.64
11525;BME280;5819;49.648;8.330;2023-05-21T11:34:37;99900.63;;;30.42;46.24
11525;BME280;5819;49.648;8.330;2023-05-21T11:37:23;99898.22;;;30.60;45.77
11525;BME280;5819;49.648;8.330;2023-05-21T11:39:53;99901.78;;;30.07;46.37
11525;BME280;5819;49.648;8.330;2023-05-21T11:42:31;99888.78;;;30.04;46.34
11525;BME280;5819;49.648;8.330;2023-05-21T11:45:00;99903.88;;;29.64;47.85
11525;BME280;5819;49.648;8.330;2023-05-21T11:47:30;99888.38;;;30.00;48.09
11525;BME280;5819;49.648;8.330;2023-05-21T11:50:00;99891.66;;;29.61;48.11
11525;BME280;5819;49.648;8.330;2023-05-21T11:52:29;99893.09;;;29.92;46.54
11525;BME280;5819;49.648;8.330;2023-05-21T11:54:58;99897.84;;;29.27;48.75
11525;BME280;5819;49.648;8.330;2023-05-21T11:57:29;99901.44;;;29.13;49.65
11525;BME280;5819;49.648;8.330;2023-05-21T11:59:58;99902.44;;;29.34;48.84
11525;BME280;5819;49.648;8.330;2023-05-21T12:02:29;99903.13;;;28.87;49.91
11525;BME280;5819;49.648;8.330;2023-05-21T12:04:58;99901.81;;;28.61;50.80
11525;BME280;5819;49.648;8.330;2023-05-21T12:07:27;99906.59;;;28.23;50.54
11525;BME280;5819;49.648;8.330;2023-05-21T12:09:57;99908.22;;;28.39;52.10
11525;BME280;5819;49.648;8.330;2023-05-21T12:12:26;99906.94;;;28.56;49.98
11525;BME280;5819;49.648;8.330;2023-05-21T12:15:10;99908.94;;;28.12;52.40
11525;BME280;5819;49.648;8.330;2023-05-21T12:17:39;99907.41;;;27.73;53.30
11525;BME280;5819;49.648;8.330;2023-05-21T12:20:13;99904.25;;;27.84;54.32
11525;BME280;5819;49.648;8.330;2023-05-21T12:22:43;99910.44;;;27.41;53.69
11525;BME280;5819;49.648;8.330;2023-05-21T12:25:11;99904.13;;;28.22;52.47
11525;BME280;5819;49.648;8.330;2023-05-21T12:27:39;99894.94;;;28.31;51.44
11525;BME280;5819;49.648;8.330;2023-05-21T12:30:12;99902.03;;;28.38;53.84
11525;BME280;5819;49.648;8.330;2023-05-21T12:32:41;99894.19;;;28.16;52.10
11525;BME280;5819;49.648;8.330;2023-05-21T12:35:19;99896.84;;;28.01;53.32
11525;BME280;5819;49.648;8.330;2023-05-21T12:37:48;99898.06;;;27.99;53.67
11525;BME280;5819;49.648;8.330;2023-05-21T12:40:18;99896.19;;;28.14;54.12
11525;BME280;5819;49.648;8.330;2023-05-21T12:42:46;99887.25;;;28.43;52.65
11525;BME280;5819;49.648;8.330;2023-05-21T12:45:16;99893.47;;;28.50;52.24
11525;BME280;5819;49.648;8.330;2023-05-21T12:47:47;99884.81;;;27.90;52.34
11525;BME280;5819;49.648;8.330;2023-05-21T12:50:22;99888.34;;;27.62;54.50
11525;BME280;5819;49.648;8.330;2023-05-21T12:52:53;99884.88;;;27.97;50.89
11525;BME280;5819;49.648;8.330;2023-05-21T12:55:22;99886.91;;;28.10;52.73
11525;BME280;5819;49.648;8.330;2023-05-21T12:58:00;99878.25;;;28.29;50.87
11525;BME280;5819;49.648;8.330;2023-05-21T13:00:31;99875.97;;;27.75;51.15
11525;BME280;5819;49.648;8.330;2023-05-21T13:03:02;99888.06;;;27.57;52.71
11525;BME280;5819;49.648;8.330;2023-05-21T13:05:32;99881.72;;;27.72;52.61
11525;BME280;5819;49.648;8.330;2023-05-21T13:08:02;99886.56;;;27.25;53.10
11525;BME280;5819;49.648;8.330;2023-05-21T13:10:30;99885.56;;;27.26;54.36
11525;BME280;5819;49.648;8.330;2023-05-21T13:12:58;99884.94;;;27.24;53.96
11525;BME280;5819;49.648;8.330;2023-05-21T13:15:27;99891.34;;;27.15;53.95
11525;BME280;5819;49.648;8.330;2023-05-21T13:17:57;99886.88;;;27.59;53.60